sensor_id;sensor_type;location;lat;lon;timestamp;temperature;humidity
70051;SHT30;57391;51.306;22.680;2023-07-02T00:00:00;19.03;80.31
70051;SHT30;57391;51.306;22.680;2023-07-02T00:02:29;19.01;80.31
70051;SHT30;57391;51.306;22.680;2023-07-02T00:04:56;18.99;80.31
70051;SHT30;57391;51.306;22.680;2023-07-02T00:07:22;18.98;80.31
70051;SHT30;57391;51.306;22.680;2023-07-02T00:09:52;18.96;80.31
70051;SHT30;57391;51.306;22.680;2023-07-02T00:12:19;18.94;80.31
70051;SHT30;57391;51.306;22.680;2023-07-02T00:14:46;18.94;80.32
70051;SHT30;57391;51.306;22.680;2023-07-02T00:17:13;18.94;80.23
70051;SHT30;57391;51.306;22.680;2023-07-02T00:19:40;18.95;80.14
70051;SHT30;57391;51.306;22.680;2023-07-02T00:22:08;18.96;80.10
70051;SHT30;57391;51.306;22.680;2023-07-02T00:24:36;18.96;80.10
70051;SHT30;57391;51.306;22.680;2023-07-02T00:27:03;18.98;80.10
70051;SHT30;57391;51.306;22.680;2023-07-02T00:29:31;18.98;79.81
70051;SHT30;57391;51.306;22.680;2023-07-02T00:31:57;18.96;79.73
70051;SHT30;57391;51.306;22.680;2023-07-02T00:34:24;18.92;79.50
70051;SHT30;57391;51.306;22.680;2023-07-02T00:36:52;18.88;79.60
70051;SHT30;57391;51.306;22.680;2023-07-02T00:39:19;18.88;79.89
70051;SHT30;57391;51.306;22.680;2023-07-02T00:41:46;18.85;80.01
70051;SHT30;57391;51.306;22.680;2023-07-02T00:44:14;18.84;80.08
70051;SHT30;57391;51.306;22.680;2023-07-02T00:46:40;18.83;80.10
70051;SHT30;57391;51.306;22.680;2023-07-02T00:49:07;18.83;80.11
70051;SHT30;57391;51.306;22.680;2023-07-02T00:51:35;18.82;80.11
70051;SHT30;57391;51.306;22.680;2023-07-02T00:54:03;18.81;80.11
70051;SHT30;57391;51.306;22.680;2023-07-02T00:56:33;18.78;80.13
70051;SHT30;57391;51.306;22.680;2023-07-02T00:59:00;18.78;79.77
70051;SHT30;57391;51.306;22.680;2023-07-02T01:01:27;18.77;79.99
70051;SHT30;57391;51.306;22.680;2023-07-02T01:04:01;18.75;79.91
70051;SHT30;57391;51.306;22.680;2023-07-02T01:06:31;18.72;80.05
70051;SHT30;57391;51.306;22.680;2023-07-02T01:09:01;18.69;80.09
70051;SHT30;57391;51.306;22.680;2023-07-02T01:11:45;18.68;80.17
70051;SHT30;57391;51.306;22.680;2023-07-02T01:14:27;18.65;80.35
70051;SHT30;57391;51.306;22.680;2023-07-02T01:16:59;18.63;80.44
70051;SHT30;57391;51.306;22.680;2023-07-02T01:22:19;18.60;80.53
70051;SHT30;57391;51.306;22.680;2023-07-02T01:24:55;18.57;80.58
70051;SHT30;57391;51.306;22.680;2023-07-02T01:27:23;18.54;80.63
70051;SHT30;57391;51.306;22.680;2023-07-02T01:29:53;18.50;80.83
70051;SHT30;57391;51.306;22.680;2023-07-02T01:32:22;18.48;80.99
70051;SHT30;57391;51.306;22.680;2023-07-02T01:34:50;18.46;81.21
70051;SHT30;57391;51.306;22.680;2023-07-02T01:37:19;18.44;81.40
70051;SHT30;57391;51.306;22.680;2023-07-02T01:39:46;18.42;81.48
70051;SHT30;57391;51.306;22.680;2023-07-02T01:44:43;18.44;81.26
70051;SHT30;57391;51.306;22.680;2023-07-02T01:47:12;18.44;81.36
70051;SHT30;57391;51.306;22.680;2023-07-02T01:49:40;18.45;81.37
70051;SHT30;57391;51.306;22.680;2023-07-02T01:52:07;18.47;81.40
70051;SHT30;57391;51.306;22.680;2023-07-02T01:54:34;18.48;81.21
70051;SHT30;57391;51.306;22.680;2023-07-02T01:57:02;18.50;81.20
70051;SHT30;57391;51.306;22.680;2023-07-02T01:59:30;18.52;81.08
70051;SHT30;57391;51.306;22.680;2023-07-02T02:01:57;18.51;81.10
70051;SHT30;57391;51.306;22.680;2023-07-02T02:04:24;18.50;81.10
70051;SHT30;57391;51.306;22.680;2023-07-02T02:06:50;18.48;81.22
70051;SHT30;57391;51.306;22.680;2023-07-02T02:09:18;18.48;81.20
70051;SHT30;57391;51.306;22.680;2023-07-02T02:11:47;18.48;81.09
70051;SHT30;57391;51.306;22.680;2023-07-02T02:14:16;18.45;81.03
70051;SHT30;57391;51.306;22.680;2023-07-02T02:16:43;18.42;81.14
70051;SHT30;57391;51.306;22.680;2023-07-02T02:19:14;18.40;80.89
70051;SHT30;57391;51.306;22.680;2023-07-02T02:21:41;18.36;81.00
70051;SHT30;57391;51.306;22.680;2023-07-02T02:24:08;18.33;81.30
70051;SHT30;57391;51.306;22.680;2023-07-02T02:26:35;18.30;81.54
70051;SHT30;57391;51.306;22.680;2023-07-02T02:29:03;18.31;81.61
70051;SHT30;57391;51.306;22.680;2023-07-02T02:31:31;18.31;81.57
70051;SHT30;57391;51.306;22.680;2023-07-02T02:33:58;18.32;81.50
70051;SHT30;57391;51.306;22.680;2023-07-02T02:36:25;18.33;81.50
70051;SHT30;57391;51.306;22.680;2023-07-02T02:38:52;18.34;81.51
70051;SHT30;57391;51.306;22.680;2023-07-02T02:41:19;18.36;81.60
70051;SHT30;57391;51.306;22.680;2023-07-02T02:43:49;18.38;81.53
70051;SHT30;57391;51.306;22.680;2023-07-02T02:46:20;18.40;81.62
70051;SHT30;57391;51.306;22.680;2023-07-02T02:48:49;18.40;81.61
70051;SHT30;57391;51.306;22.680;2023-07-02T02:51:18;18.41;81.56
70051;SHT30;57391;51.306;22.680;2023-07-02T02:53:45;18.42;81.61
70051;SHT30;57391;51.306;22.680;2023-07-02T02:56:12;18.43;81.58
70051;SHT30;57391;51.306;22.680;2023-07-02T02:58:39;18.44;81.53
70051;SHT30;57391;51.306;22.680;2023-07-02T03:01:06;18.45;81.54
70051;SHT30;57391;51.306;22.680;2023-07-02T03:03:40;18.44;81.52
70051;SHT30;57391;51.306;22.680;2023-07-02T03:06:12;18.42;81.46
70051;SHT30;57391;51.306;22.680;2023-07-02T03:08:41;18.41;81.40
70051;SHT30;57391;51.306;22.680;2023-07-02T03:11:08;18.42;81.40
70051;SHT30;57391;51.306;22.680;2023-07-02T03:13:35;18.42;81.46
70051;SHT30;57391;51.306;22.680;2023-07-02T03:16:02;18.42;81.54
70051;SHT30;57391;51.306;22.680;2023-07-02T03:18:29;18.41;81.63
70051;SHT30;57391;51.306;22.680;2023-07-02T03:20:56;18.39;81.74
70051;SHT30;57391;51.306;22.680;2023-07-02T03:23:23;18.39;81.89
70051;SHT30;57391;51.306;22.680;2023-07-02T03:25:50;18.40;81.92
70051;SHT30;57391;51.306;22.680;2023-07-02T03:28:16;18.42;82.00
70051;SHT30;57391;51.306;22.680;2023-07-02T03:30:43;18.44;82.16
70051;SHT30;57391;51.306;22.680;2023-07-02T03:33:10;18.46;82.30
70051;SHT30;57391;51.306;22.680;2023-07-02T03:35:37;18.49;82.45
70051;SHT30;57391;51.306;22.680;2023-07-02T03:38:04;18.53;82.51
70051;SHT30;57391;51.306;22.680;2023-07-02T03:40:32;18.59;82.50
70051;SHT30;57391;51.306;22.680;2023-07-02T03:42:59;18.88;82.36
70051;SHT30;57391;51.306;22.680;2023-07-02T03:45:26;19.34;81.64
70051;SHT30;57391;51.306;22.680;2023-07-02T03:47:53;19.79;80.65
70051;SHT30;57391;51.306;22.680;2023-07-02T03:50:20;20.42;79.43
70051;SHT30;57391;51.306;22.680;2023-07-02T03:52:47;21.06;78.11
70051;SHT30;57391;51.306;22.680;2023-07-02T03:55:13;21.67;76.55
70051;SHT30;57391;51.306;22.680;2023-07-02T03:57:40;22.10;75.15
70051;SHT30;57391;51.306;22.680;2023-07-02T04:00:07;22.39;74.16
70051;SHT30;57391;51.306;22.680;2023-07-02T04:02:41;22.86;72.90
70051;SHT30;57391;51.306;22.680;2023-07-02T04:05:08;23.43;71.40
70051;SHT30;57391;51.306;22.680;2023-07-02T04:07:35;24.43;69.44
70051;SHT30;57391;51.306;22.680;2023-07-02T04:10:01;25.13;67.59
70051;SHT30;57391;51.306;22.680;2023-07-02T04:12:28;25.79;65.55
70051;SHT30;57391;51.306;22.680;2023-07-02T04:14:57;26.60;63.54
70051;SHT30;57391;51.306;22.680;2023-07-02T04:17:24;27.50;61.68
70051;SHT30;57391;51.306;22.680;2023-07-02T04:19:53;28.32;59.38
70051;SHT30;57391;51.306;22.680;2023-07-02T04:22:21;28.96;57.38
70051;SHT30;57391;51.306;22.680;2023-07-02T04:24:48;29.41;55.82
70051;SHT30;57391;51.306;22.680;2023-07-02T04:27:15;29.98;54.60
70051;SHT30;57391;51.306;22.680;2023-07-02T04:29:45;30.68;53.10
70051;SHT30;57391;51.306;22.680;2023-07-02T04:32:12;31.42;51.46
70051;SHT30;57391;51.306;22.680;2023-07-02T04:34:39;32.12;49.87
70051;SHT30;57391;51.306;22.680;2023-07-02T04:37:08;32.79;48.50
70051;SHT30;57391;51.306;22.680;2023-07-02T04:39:36;33.05;47.58
70051;SHT30;57391;51.306;22.680;2023-07-02T04:42:03;32.56;47.52
70051;SHT30;57391;51.306;22.680;2023-07-02T04:44:30;31.70;48.48
70051;SHT30;57391;51.306;22.680;2023-07-02T04:47:00;30.97;49.41
70051;SHT30;57391;51.306;22.680;2023-07-02T04:49:28;30.36;50.32
70051;SHT30;57391;51.306;22.680;2023-07-02T04:51:55;30.27;50.55
70051;SHT30;57391;51.306;22.680;2023-07-02T04:54:21;31.21;49.68
70051;SHT30;57391;51.306;22.680;2023-07-02T04:56:49;31.82;48.73
70051;SHT30;57391;51.306;22.680;2023-07-02T04:59:16;31.27;48.48
70051;SHT30;57391;51.306;22.680;2023-07-02T05:01:43;30.53;48.81
70051;SHT30;57391;51.306;22.680;2023-07-02T05:04:10;29.74;49.94
70051;SHT30;57391;51.306;22.680;2023-07-02T05:06:37;29.02;51.22
70051;SHT30;57391;51.306;22.680;2023-07-02T05:09:04;28.45;52.09
70051;SHT30;57391;51.306;22.680;2023-07-02T05:11:31;27.97;53.04
70051;SHT30;57391;51.306;22.680;2023-07-02T05:13:58;27.52;53.50
70051;SHT30;57391;51.306;22.680;2023-07-02T05:16:25;27.16;54.40
70051;SHT30;57391;51.306;22.680;2023-07-02T05:18:52;26.98;55.46
70051;SHT30;57391;51.306;22.680;2023-07-02T05:21:19;26.86;55.88
70051;SHT30;57391;51.306;22.680;2023-07-02T05:23:47;26.65;56.84
70051;SHT30;57391;51.306;22.680;2023-07-02T05:26:14;26.43;57.04
70051;SHT30;57391;51.306;22.680;2023-07-02T05:28:41;26.41;57.00
70051;SHT30;57391;51.306;22.680;2023-07-02T05:31:08;26.35;57.17
70051;SHT30;57391;51.306;22.680;2023-07-02T05:33:35;26.19;57.75
70051;SHT30;57391;51.306;22.680;2023-07-02T05:36:01;26.06;57.64
70051;SHT30;57391;51.306;22.680;2023-07-02T05:38:28;25.94;57.80
70051;SHT30;57391;51.306;22.680;2023-07-02T05:40:55;25.88;58.11
70051;SHT30;57391;51.306;22.680;2023-07-02T05:43:22;25.76;57.64
70051;SHT30;57391;51.306;22.680;2023-07-02T05:45:50;25.64;58.18
70051;SHT30;57391;51.306;22.680;2023-07-02T05:48:18;25.68;58.64
70051;SHT30;57391;51.306;22.680;2023-07-02T05:50:45;25.80;58.21
70051;SHT30;57391;51.306;22.680;2023-07-02T05:53:12;25.89;57.47
70051;SHT30;57391;51.306;22.680;2023-07-02T05:55:39;26.00;57.43
70051;SHT30;57391;51.306;22.680;2023-07-02T05:58:07;26.13;57.01
70051;SHT30;57391;51.306;22.680;2023-07-02T06:00:34;26.11;56.45
70051;SHT30;57391;51.306;22.680;2023-07-02T06:03:01;26.10;56.14
70051;SHT30;57391;51.306;22.680;2023-07-02T06:05:29;26.10;55.94
70051;SHT30;57391;51.306;22.680;2023-07-02T06:07:56;26.18;56.32
70051;SHT30;57391;51.306;22.680;2023-07-02T06:10:22;26.54;55.86
70051;SHT30;57391;51.306;22.680;2023-07-02T06:12:49;27.34;54.00
70051;SHT30;57391;51.306;22.680;2023-07-02T06:15:16;28.22;52.53
70051;SHT30;57391;51.306;22.680;2023-07-02T06:17:43;29.00;50.25
70051;SHT30;57391;51.306;22.680;2023-07-02T06:20:10;29.68;48.46
70051;SHT30;57391;51.306;22.680;2023-07-02T06:22:38;30.29;47.10
70051;SHT30;57391;51.306;22.680;2023-07-02T06:25:06;30.82;45.73
70051;SHT30;57391;51.306;22.680;2023-07-02T06:27:33;31.20;44.38
70051;SHT30;57391;51.306;22.680;2023-07-02T06:30:00;31.57;44.24
70051;SHT30;57391;51.306;22.680;2023-07-02T06:32:27;31.97;43.50
70051;SHT30;57391;51.306;22.680;2023-07-02T06:34:54;32.33;42.51
70051;SHT30;57391;51.306;22.680;2023-07-02T06:37:21;32.39;41.95
70051;SHT30;57391;51.306;22.680;2023-07-02T06:39:48;32.05;41.47
70051;SHT30;57391;51.306;22.680;2023-07-02T06:42:15;31.63;42.46
70051;SHT30;57391;51.306;22.680;2023-07-02T06:44:41;31.35;43.09
70051;SHT30;57391;51.306;22.680;2023-07-02T06:47:08;31.18;44.46
70051;SHT30;57391;51.306;22.680;2023-07-02T06:49:36;30.93;44.14
70051;SHT30;57391;51.306;22.680;2023-07-02T06:52:03;30.66;43.26
70051;SHT30;57391;51.306;22.680;2023-07-02T06:54:30;30.56;42.69
70051;SHT30;57391;51.306;22.680;2023-07-02T06:56:57;30.62;42.18
70051;SHT30;57391;51.306;22.680;2023-07-02T06:59:24;30.73;40.61
70051;SHT30;57391;51.306;22.680;2023-07-02T07:01:50;30.86;41.00
70051;SHT30;57391;51.306;22.680;2023-07-02T07:04:17;31.12;40.24
70051;SHT30;57391;51.306;22.680;2023-07-02T07:06:44;31.28;39.66
70051;SHT30;57391;51.306;22.680;2023-07-02T07:09:11;31.28;39.19
70051;SHT30;57391;51.306;22.680;2023-07-02T07:11:38;31.33;38.72
70051;SHT30;57391;51.306;22.680;2023-07-02T07:14:05;31.39;38.68
70051;SHT30;57391;51.306;22.680;2023-07-02T07:16:32;31.44;38.76
70051;SHT30;57391;51.306;22.680;2023-07-02T07:18:59;31.40;38.60
70051;SHT30;57391;51.306;22.680;2023-07-02T07:21:27;31.22;38.47
70051;SHT30;57391;51.306;22.680;2023-07-02T07:23:54;31.00;39.04
70051;SHT30;57391;51.306;22.680;2023-07-02T07:26:21;30.93;38.84
70051;SHT30;57391;51.306;22.680;2023-07-02T07:28:48;30.84;38.78
70051;SHT30;57391;51.306;22.680;2023-07-02T07:31:15;30.68;39.77
70051;SHT30;57391;51.306;22.680;2023-07-02T07:33:42;30.50;40.10
70051;SHT30;57391;51.306;22.680;2023-07-02T07:36:10;30.20;39.91
70051;SHT30;57391;51.306;22.680;2023-07-02T07:38:44;29.90;39.06
70051;SHT30;57391;51.306;22.680;2023-07-02T07:41:20;29.71;38.56
70051;SHT30;57391;51.306;22.680;2023-07-02T07:43:47;29.59;38.39
70051;SHT30;57391;51.306;22.680;2023-07-02T07:46:14;29.47;37.91
70051;SHT30;57391;51.306;22.680;2023-07-02T07:48:41;29.33;37.78
70051;SHT30;57391;51.306;22.680;2023-07-02T07:51:08;29.11;37.88
70051;SHT30;57391;51.306;22.680;2023-07-02T07:53:37;28.88;39.18
70051;SHT30;57391;51.306;22.680;2023-07-02T07:56:05;28.75;39.91
70051;SHT30;57391;51.306;22.680;2023-07-02T07:58:32;28.63;39.97
70051;SHT30;57391;51.306;22.680;2023-07-02T08:00:59;28.70;41.20
70051;SHT30;57391;51.306;22.680;2023-07-02T08:03:26;28.76;41.20
70051;SHT30;57391;51.306;22.680;2023-07-02T08:05:54;28.77;42.07
70051;SHT30;57391;51.306;22.680;2023-07-02T08:08:21;28.74;42.05
70051;SHT30;57391;51.306;22.680;2023-07-02T08:10:48;28.70;42.40
70051;SHT30;57391;51.306;22.680;2023-07-02T08:13:16;28.67;41.59
70051;SHT30;57391;51.306;22.680;2023-07-02T08:15:44;28.60;41.16
70051;SHT30;57391;51.306;22.680;2023-07-02T08:18:10;28.60;42.36
70051;SHT30;57391;51.306;22.680;2023-07-02T08:20:39;28.72;43.45
70051;SHT30;57391;51.306;22.680;2023-07-02T08:23:06;28.77;42.10
70051;SHT30;57391;51.306;22.680;2023-07-02T08:25:34;28.71;42.52
70051;SHT30;57391;51.306;22.680;2023-07-02T08:28:00;28.64;41.87
70051;SHT30;57391;51.306;22.680;2023-07-02T08:30:27;28.49;41.88
70051;SHT30;57391;51.306;22.680;2023-07-02T08:32:54;28.32;42.08
70051;SHT30;57391;51.306;22.680;2023-07-02T08:35:22;28.13;43.35
70051;SHT30;57391;51.306;22.680;2023-07-02T08:37:49;27.94;43.84
70051;SHT30;57391;51.306;22.680;2023-07-02T08:40:16;27.72;44.47
70051;SHT30;57391;51.306;22.680;2023-07-02T08:42:45;27.55;45.07
70051;SHT30;57391;51.306;22.680;2023-07-02T08:45:16;27.41;45.57
70051;SHT30;57391;51.306;22.680;2023-07-02T08:47:44;27.28;45.65
70051;SHT30;57391;51.306;22.680;2023-07-02T08:50:12;27.20;46.26
70051;SHT30;57391;51.306;22.680;2023-07-02T08:52:40;27.11;46.40
70051;SHT30;57391;51.306;22.680;2023-07-02T08:55:09;27.06;46.88
70051;SHT30;57391;51.306;22.680;2023-07-02T08:57:36;27.04;47.74
70051;SHT30;57391;51.306;22.680;2023-07-02T09:00:09;27.05;48.28
70051;SHT30;57391;51.306;22.680;2023-07-02T09:02:37;26.98;47.15
70051;SHT30;57391;51.306;22.680;2023-07-02T09:05:04;26.85;47.25
70051;SHT30;57391;51.306;22.680;2023-07-02T09:07:32;26.69;47.77
70051;SHT30;57391;51.306;22.680;2023-07-02T09:10:10;26.50;48.56
70051;SHT30;57391;51.306;22.680;2023-07-02T09:12:37;26.30;48.97
70051;SHT30;57391;51.306;22.680;2023-07-02T09:15:05;26.11;49.59
70051;SHT30;57391;51.306;22.680;2023-07-02T09:17:34;25.97;50.38
70051;SHT30;57391;51.306;22.680;2023-07-02T09:20:04;25.90;50.88
70051;SHT30;57391;51.306;22.680;2023-07-02T09:22:36;25.86;50.48
70051;SHT30;57391;51.306;22.680;2023-07-02T09:25:05;25.90;50.51
70051;SHT30;57391;51.306;22.680;2023-07-02T09:30:11;26.02;50.71
70051;SHT30;57391;51.306;22.680;2023-07-02T09:32:42;26.21;51.46
70051;SHT30;57391;51.306;22.680;2023-07-02T09:35:11;26.41;52.11
70051;SHT30;57391;51.306;22.680;2023-07-02T09:37:38;26.51;50.42
70051;SHT30;57391;51.306;22.680;2023-07-02T09:40:09;26.56;50.64
70051;SHT30;57391;51.306;22.680;2023-07-02T09:42:37;26.63;47.99
70051;SHT30;57391;51.306;22.680;2023-07-02T09:45:09;26.65;46.58
70051;SHT30;57391;51.306;22.680;2023-07-02T09:47:40;26.69;46.12
70051;SHT30;57391;51.306;22.680;2023-07-02T09:50:14;26.81;46.48
70051;SHT30;57391;51.306;22.680;2023-07-02T09:52:44;26.83;45.39
70051;SHT30;57391;51.306;22.680;2023-07-02T09:55:12;26.77;46.64
70051;SHT30;57391;51.306;22.680;2023-07-02T09:57:39;26.71;47.05
70051;SHT30;57391;51.306;22.680;2023-07-02T10:00:09;26.65;46.39
70051;SHT30;57391;51.306;22.680;2023-07-02T10:02:38;26.56;45.21
70051;SHT30;57391;51.306;22.680;2023-07-02T10:05:05;26.42;45.48
70051;SHT30;57391;51.306;22.680;2023-07-02T10:07:32;26.36;45.72
70051;SHT30;57391;51.306;22.680;2023-07-02T10:10:00;26.36;47.17
70051;SHT30;57391;51.306;22.680;2023-07-02T10:12:28;26.39;47.70
70051;SHT30;57391;51.306;22.680;2023-07-02T10:14:57;26.48;48.50
70051;SHT30;57391;51.306;22.680;2023-07-02T10:17:30;26.64;49.17
70051;SHT30;57391;51.306;22.680;2023-07-02T10:20:00;26.79;49.25
70051;SHT30;57391;51.306;22.680;2023-07-02T10:22:44;26.90;48.12
70051;SHT30;57391;51.306;22.680;2023-07-02T10:25:26;27.07;47.98
70051;SHT30;57391;51.306;22.680;2023-07-02T10:27:58;27.22;47.34
70051;SHT30;57391;51.306;22.680;2023-07-02T10:30:33;27.31;47.43
70051;SHT30;57391;51.306;22.680;2023-07-02T10:33:07;27.45;48.51
70051;SHT30;57391;51.306;22.680;2023-07-02T10:35:35;27.62;48.86
70051;SHT30;57391;51.306;22.680;2023-07-02T10:38:03;27.77;48.50
70051;SHT30;57391;51.306;22.680;2023-07-02T10:40:32;27.81;47.28
70051;SHT30;57391;51.306;22.680;2023-07-02T10:43:00;27.72;47.06
70051;SHT30;57391;51.306;22.680;2023-07-02T10:45:33;27.57;46.70
70051;SHT30;57391;51.306;22.680;2023-07-02T10:48:08;27.35;46.09
70051;SHT30;57391;51.306;22.680;2023-07-02T10:50:36;27.12;45.64
70051;SHT30;57391;51.306;22.680;2023-07-02T10:53:03;26.87;44.90
70051;SHT30;57391;51.306;22.680;2023-07-02T10:55:30;26.70;46.10
70051;SHT30;57391;51.306;22.680;2023-07-02T10:58:06;26.58;46.65
70051;SHT30;57391;51.306;22.680;2023-07-02T11:00:51;26.52;47.27
70051;SHT30;57391;51.306;22.680;2023-07-02T11:03:22;26.55;47.77
70051;SHT30;57391;51.306;22.680;2023-07-02T11:05:52;26.60;47.99
70051;SHT30;57391;51.306;22.680;2023-07-02T11:08:20;26.66;47.62
70051;SHT30;57391;51.306;22.680;2023-07-02T11:11:06;26.72;47.51
70051;SHT30;57391;51.306;22.680;2023-07-02T11:13:34;26.82;48.10
70051;SHT30;57391;51.306;22.680;2023-07-02T11:16:26;26.92;47.84
70051;SHT30;57391;51.306;22.680;2023-07-02T11:19:08;27.01;48.18
70051;SHT30;57391;51.306;22.680;2023-07-02T11:21:37;27.18;48.40
70051;SHT30;57391;51.306;22.680;2023-07-02T11:24:06;27.18;47.82
70051;SHT30;57391;51.306;22.680;2023-07-02T11:26:35;27.08;47.61
70051;SHT30;57391;51.306;22.680;2023-07-02T11:29:12;26.97;48.55
70051;SHT30;57391;51.306;22.680;2023-07-02T11:31:45;26.94;48.88
70051;SHT30;57391;51.306;22.680;2023-07-02T11:34:15;26.94;48.68
70051;SHT30;57391;51.306;22.680;2023-07-02T11:36:44;26.87;48.53
70051;SHT30;57391;51.306;22.680;2023-07-02T11:39:12;26.81;48.75
70051;SHT30;57391;51.306;22.680;2023-07-02T11:41:42;26.70;48.93
70051;SHT30;57391;51.306;22.680;2023-07-02T11:44:11;26.71;49.73
70051;SHT30;57391;51.306;22.680;2023-07-02T11:46:38;26.77;50.20
70051;SHT30;57391;51.306;22.680;2023-07-02T11:49:05;26.86;50.38
70051;SHT30;57391;51.306;22.680;2023-07-02T11:51:35;26.90;48.94
70051;SHT30;57391;51.306;22.680;2023-07-02T11:54:06;26.97;49.13
70051;SHT30;57391;51.306;22.680;2023-07-02T11:56:34;27.06;49.57
70051;SHT30;57391;51.306;22.680;2023-07-02T11:59:01;27.10;49.56
70051;SHT30;57391;51.306;22.680;2023-07-02T12:01:28;27.06;49.86
70051;SHT30;57391;51.306;22.680;2023-07-02T12:03:55;27.07;50.41
70051;SHT30;57391;51.306;22.680;2023-07-02T12:06:22;27.13;50.58
70051;SHT30;57391;51.306;22.680;2023-07-02T12:08:49;27.13;50.58
70051;SHT30;57391;51.306;22.680;2023-07-02T12:11:15;27.11;50.80
70051;SHT30;57391;51.306;22.680;2023-07-02T12:13:43;27.15;51.14
70051;SHT30;57391;51.306;22.680;2023-07-02T12:16:10;27.22;50.54
70051;SHT30;57391;51.306;22.680;2023-07-02T12:18:37;27.32;51.09
70051;SHT30;57391;51.306;22.680;2023-07-02T12:21:04;27.43;50.11
70051;SHT30;57391;51.306;22.680;2023-07-02T12:23:31;27.43;49.13
70051;SHT30;57391;51.306;22.680;2023-07-02T12:25:58;27.35;49.29
70051;SHT30;57391;51.306;22.680;2023-07-02T12:28:25;27.34;49.92
70051;SHT30;57391;51.306;22.680;2023-07-02T12:30:52;27.37;50.02
70051;SHT30;57391;51.306;22.680;2023-07-02T12:33:18;27.38;49.97
70051;SHT30;57391;51.306;22.680;2023-07-02T12:35:45;27.30;48.64
70051;SHT30;57391;51.306;22.680;2023-07-02T12:38:12;27.16;48.63
70051;SHT30;57391;51.306;22.680;2023-07-02T12:40:39;27.00;48.21
70051;SHT30;57391;51.306;22.680;2023-07-02T12:43:06;26.88;48.76
70051;SHT30;57391;51.306;22.680;2023-07-02T12:45:33;26.78;48.97
70051;SHT30;57391;51.306;22.680;2023-07-02T12:48:00;26.74;49.66
70051;SHT30;57391;51.306;22.680;2023-07-02T12:50:27;26.73;50.41
70051;SHT30;57391;51.306;22.680;2023-07-02T12:52:54;26.77;51.05
70051;SHT30;57391;51.306;22.680;2023-07-02T12:55:21;26.74;50.26
70051;SHT30;57391;51.306;22.680;2023-07-02T12:57:48;26.64;50.08
70051;SHT30;57391;51.306;22.680;2023-07-02T13:00:15;26.58;50.66
70051;SHT30;57391;51.306;22.680;2023-07-02T13:02:42;26.54;50.42
70051;SHT30;57391;51.306;22.680;2023-07-02T13:05:09;26.52;50.53
70051;SHT30;57391;51.306;22.680;2023-07-02T13:07:36;26.47;50.65
70051;SHT30;57391;51.306;22.680;2023-07-02T13:10:03;26.42;51.58
70051;SHT30;57391;51.306;22.680;2023-07-02T13:12:31;26.38;51.58
70051;SHT30;57391;51.306;22.680;2023-07-02T13:14:58;26.32;51.71
70051;SHT30;57391;51.306;22.680;2023-07-02T13:17:25;26.22;51.80
70051;SHT30;57391;51.306;22.680;2023-07-02T13:19:52;26.06;52.17
70051;SHT30;57391;51.306;22.680;2023-07-02T13:22:19;25.85;52.98
70051;SHT30;57391;51.306;22.680;2023-07-02T13:24:46;25.56;53.96
70051;SHT30;57391;51.306;22.680;2023-07-02T13:27:13;25.25;54.86
70051;SHT30;57391;51.306;22.680;2023-07-02T13:29:44;24.98;55.77
70051;SHT30;57391;51.306;22.680;2023-07-02T13:32:10;24.74;56.55
70051;SHT30;57391;51.306;22.680;2023-07-02T13:34:37;24.53;57.44
70051;SHT30;57391;51.306;22.680;2023-07-02T13:37:04;24.34;57.72
70051;SHT30;57391;51.306;22.680;2023-07-02T13:39:31;24.22;58.10
70051;SHT30;57391;51.306;22.680;2023-07-02T13:41:59;24.13;58.08
70051;SHT30;57391;51.306;22.680;2023-07-02T13:44:26;24.03;57.82
70051;SHT30;57391;51.306;22.680;2023-07-02T13:46:53;23.92;58.23
70051;SHT30;57391;51.306;22.680;2023-07-02T13:49:20;23.85;58.53
70051;SHT30;57391;51.306;22.680;2023-07-02T13:51:48;23.78;58.79
70051;SHT30;57391;51.306;22.680;2023-07-02T13:54:16;23.70;58.42
70051;SHT30;57391;51.306;22.680;2023-07-02T13:56:46;23.69;59.55
70051;SHT30;57391;51.306;22.680;2023-07-02T13:59:14;23.74;59.75
70051;SHT30;57391;51.306;22.680;2023-07-02T14:01:43;23.80;58.92
70051;SHT30;57391;51.306;22.680;2023-07-02T14:04:11;23.86;58.16
70051;SHT30;57391;51.306;22.680;2023-07-02T14:06:39;23.89;57.41
70051;SHT30;57391;51.306;22.680;2023-07-02T14:09:07;23.90;57.43
70051;SHT30;57391;51.306;22.680;2023-07-02T14:11:35;23.95;57.56
70051;SHT30;57391;51.306;22.680;2023-07-02T14:14:09;24.08;57.16
70051;SHT30;57391;51.306;22.680;2023-07-02T14:16:35;24.20;56.56
70051;SHT30;57391;51.306;22.680;2023-07-02T14:19:02;24.36;56.71
70051;SHT30;57391;51.306;22.680;2023-07-02T14:21:29;24.53;56.27
70051;SHT30;57391;51.306;22.680;2023-07-02T14:23:57;24.71;54.52
70051;SHT30;57391;51.306;22.680;2023-07-02T14:26:25;24.79;53.33
70051;SHT30;57391;51.306;22.680;2023-07-02T14:28:52;24.92;52.44
70051;SHT30;57391;51.306;22.680;2023-07-02T14:31:20;25.02;52.35
70051;SHT30;57391;51.306;22.680;2023-07-02T14:33:47;25.09;51.77
70051;SHT30;57391;51.306;22.680;2023-07-02T14:36:14;25.10;51.69
70051;SHT30;57391;51.306;22.680;2023-07-02T14:38:41;25.07;51.72
70051;SHT30;57391;51.306;22.680;2023-07-02T14:41:08;25.03;51.25
70051;SHT30;57391;51.306;22.680;2023-07-02T14:43:35;25.02;51.29
70051;SHT30;57391;51.306;22.680;2023-07-02T14:46:03;25.04;51.40
70051;SHT30;57391;51.306;22.680;2023-07-02T14:48:31;25.04;51.28
70051;SHT30;57391;51.306;22.680;2023-07-02T14:50:58;25.04;51.47
70051;SHT30;57391;51.306;22.680;2023-07-02T14:53:28;25.05;51.54
70051;SHT30;57391;51.306;22.680;2023-07-02T14:55:58;25.05;50.99
70051;SHT30;57391;51.306;22.680;2023-07-02T14:58:27;25.04;50.68
70051;SHT30;57391;51.306;22.680;2023-07-02T15:00:58;25.01;50.64
70051;SHT30;57391;51.306;22.680;2023-07-02T15:03:26;25.00;51.42
70051;SHT30;57391;51.306;22.680;2023-07-02T15:06:04;25.00;51.33
70051;SHT30;57391;51.306;22.680;2023-07-02T15:08:38;25.02;51.47
70051;SHT30;57391;51.306;22.680;2023-07-02T15:11:06;25.02;51.38
70051;SHT30;57391;51.306;22.680;2023-07-02T15:13:35;24.98;51.53
70051;SHT30;57391;51.306;22.680;2023-07-02T15:16:02;24.89;51.64
70051;SHT30;57391;51.306;22.680;2023-07-02T15:18:30;24.80;52.15
70051;SHT30;57391;51.306;22.680;2023-07-02T15:20:57;24.81;52.44
70051;SHT30;57391;51.306;22.680;2023-07-02T15:23:25;24.86;52.65
70051;SHT30;57391;51.306;22.680;2023-07-02T15:25:54;24.91;52.99
70051;SHT30;57391;51.306;22.680;2023-07-02T15:28:25;24.91;53.30